LBSF

Sofia Airport

Airport
ICAO code
LBSF
IATA Code
SOF
Summary
ICAO Region
EUR
ICAO Territory
Location

Sofia, Sofia-Capital

Serving
Sofia
Elevation
1742 ft
Coordinates
42° 41' 44" N , 23° 24' 57" E
KCC
Cfa
Airport RE
Aquaplaning
Airport WX
Cumulonimbus
Metar
Observation
LBSF 131630Z 12004KT 080V170 9999 FEW066 18/16 Q1012 NOSIG
Station
Sofia Observ.
Date/Time
2022-08-13 16:30:00
Wind direction
120°
Wind speed
04 kts
Lowest cloud amount
few clouds
Temperature
18°C
Dew point
16°C
Humidity
88%
QNH
1012 hPa
Weather condition
n/a

International airport serving the capital of Bulgaria.

Climatology

Humid “subtropical” climate (Köppen climate classification Cfa)

Runways

Designator Length Width Surface Rops
9/27 2800 45 ASP Yes/Yes

Airport map

Aerial View

SKYbrary Partners:

Safety knowledge contributed by: